Time;durP1;ratioP1;P1;durP2;ratioP2;P2;SDS_P1;SDS_P2;PMS_P1;PMS_P2;Temp;Humidity;BMP_temperature;BMP_pressure;BME280_temperature;BME280_humidity;BME280_pressure;Samples;Min_cycle;Max_cycle;Signal;HPM_P1;HPM_P2
2021/10/12 00:02:11;;;;;;;17.02;1.70;;;;;;;;;;4998788;28;20485;-58
2021/10/12 00:04:38;;;;;;;24.88;2.13;;;;;;;;;;4997583;28;22036;-57
2021/10/12 00:07:04;;;;;;;16.00;1.80;;;;;;;;;;5014809;28;20020;-59
2021/10/12 00:09:30;;;;;;;6.35;1.08;;;;;;;;;;5034216;28;20068;-58
2021/10/12 00:11:56;;;;;;;7.18;1.17;;;;;;;;;;5013106;28;20032;-58
2021/10/12 00:14:21;;;;;;;5.70;1.67;;;;;;;;;;5032256;28;20029;-59
2021/10/12 00:16:47;;;;;;;10.07;1.23;;;;;;;;;;5014605;28;20030;-58
2021/10/12 00:19:15;;;;;;;6.05;1.25;;;;;;;;;;5014947;28;20032;-57
2021/10/12 00:21:46;;;;;;;20.17;1.40;;;;;;;;;;5015129;28;20026;-57
2021/10/12 00:24:14;;;;;;;12.23;1.33;;;;;;;;;;5016645;28;20028;-57
2021/10/12 00:26:42;;;;;;;6.50;1.23;;;;;;;;;;5032196;28;20119;-58
2021/10/12 00:29:07;;;;;;;8.20;1.20;;;;;;;;;;4999568;28;20046;-58
2021/10/12 00:31:33;;;;;;;4.68;0.98;;;;;;;;;;5016677;28;20045;-58
2021/10/12 00:33:58;;;;;;;15.70;1.40;;;;;;;;;;5030166;28;20036;-57
2021/10/12 00:36:27;;;;;;;9.00;1.30;;;;;;;;;;5032293;28;20021;-58
2021/10/12 00:38:52;;;;;;;10.93;1.30;;;;;;;;;;5017656;28;20116;-58
2021/10/12 00:41:20;;;;;;;10.20;1.13;;;;;;;;;;5034396;28;20028;-58
2021/10/12 00:43:48;;;;;;;6.32;1.02;;;;;;;;;;5029560;28;20136;-58
2021/10/12 00:46:13;;;;;;;4.20;1.30;;;;;;;;;;5015099;28;20094;-58
2021/10/12 00:48:39;;;;;;;13.38;1.58;;;;;;;;;;5011739;28;20040;-59
2021/10/12 00:51:05;;;;;;;7.47;1.20;;;;;;;;;;5031724;28;20037;-59
2021/10/12 00:53:32;;;;;;;15.00;1.75;;;;;;;;;;4996488;28;20110;-58
2021/10/12 00:56:04;;;;;;;11.80;1.52;;;;;;;;;;5008443;28;20040;-59
2021/10/12 00:58:35;;;;;;;11.20;1.33;;;;;;;;;;5020606;28;22078;-59
2021/10/12 01:01:03;;;;;;;10.52;1.30;;;;;;;;;;5014712;28;20068;-58
2021/10/12 01:03:28;;;;;;;12.23;1.25;;;;;;;;;;5016994;28;20040;-59
2021/10/12 01:05:59;;;;;;;8.20;1.13;;;;;;;;;;5031490;28;20025;-57
2021/10/12 01:08:27;;;;;;;8.95;1.55;;;;;;;;;;5033911;28;20033;-58
2021/10/12 01:10:55;;;;;;;4.93;0.82;;;;;;;;;;4999940;28;20048;-60
2021/10/12 01:13:23;;;;;;;20.67;1.50;;;;;;;;;;5033489;28;20387;-62
2021/10/12 01:15:50;;;;;;;17.83;1.38;;;;;;;;;;4998019;28;20041;-57
2021/10/12 01:18:19;;;;;;;8.60;1.10;;;;;;;;;;5032953;28;20547;-56
2021/10/12 01:20:50;;;;;;;18.42;1.30;;;;;;;;;;5017704;28;20667;-56
2021/10/12 01:23:20;;;;;;;10.77;0.85;;;;;;;;;;5010229;28;20497;-57
2021/10/12 01:25:51;;;;;;;12.63;1.40;;;;;;;;;;5016693;28;20037;-56
2021/10/12 01:28:16;;;;;;;16.15;1.27;;;;;;;;;;5024410;28;20594;-56
2021/10/12 01:30:47;;;;;;;3.50;1.10;;;;;;;;;;5018335;28;20037;-56
2021/10/12 01:33:14;;;;;;;7.00;0.85;;;;;;;;;;5035002;28;20048;-58
2021/10/12 01:35:42;;;;;;;13.80;1.48;;;;;;;;;;5004382;28;20032;-57
2021/10/12 01:38:15;;;;;;;17.83;1.45;;;;;;;;;;5005316;28;20037;-57
2021/10/12 01:40:43;;;;;;;4.95;1.02;;;;;;;;;;5020791;28;20438;-57
2021/10/12 01:43:09;;;;;;;9.40;1.13;;;;;;;;;;5033760;28;20036;-57
2021/10/12 01:45:37;;;;;;;3.65;1.10;;;;;;;;;;5032409;28;20044;-58
2021/10/12 01:48:07;;;;;;;18.08;1.83;;;;;;;;;;5017563;28;20111;-59
2021/10/12 01:50:35;;;;;;;10.80;1.52;;;;;;;;;;5036410;28;20688;-58
2021/10/12 01:53:03;;;;;;;5.45;1.08;;;;;;;;;;5012967;28;20029;-59
2021/10/12 01:55:34;;;;;;;13.40;1.33;;;;;;;;;;5036073;28;20534;-58
2021/10/12 01:57:59;;;;;;;14.30;1.30;;;;;;;;;;4991962;28;20028;-56
2021/10/12 02:00:25;;;;;;;6.80;0.82;;;;;;;;;;5008555;28;20079;-58
2021/10/12 02:02:50;;;;;;;6.30;0.93;;;;;;;;;;5000994;28;20083;-57
2021/10/12 02:05:16;;;;;;;8.38;0.85;;;;;;;;;;5007604;28;20033;-58
2021/10/12 02:07:43;;;;;;;7.53;0.90;;;;;;;;;;5019066;28;20072;-57
2021/10/12 02:10:09;;;;;;;8.60;0.80;;;;;;;;;;5002279;28;20385;-58
2021/10/12 02:12:34;;;;;;;14.10;1.67;;;;;;;;;;5006774;28;20487;-58
2021/10/12 02:15:00;;;;;;;24.10;1.52;;;;;;;;;;5016670;28;20033;-61
2021/10/12 02:17:28;;;;;;;10.40;1.17;;;;;;;;;;5034718;28;20889;-58
2021/10/12 02:20:01;;;;;;;11.38;1.42;;;;;;;;;;5034942;28;20016;-58
2021/10/12 02:22:27;;;;;;;10.57;1.73;;;;;;;;;;5020084;28;20182;-58
2021/10/12 02:24:55;;;;;;;10.07;1.25;;;;;;;;;;5034601;28;20178;-58
2021/10/12 02:27:23;;;;;;;6.53;1.10;;;;;;;;;;5019929;28;20047;-60
2021/10/12 02:29:51;;;;;;;14.57;1.40;;;;;;;;;;5002429;28;20036;-58
2021/10/12 02:32:17;;;;;;;6.63;1.40;;;;;;;;;;5001130;28;20115;-58
2021/10/12 02:34:43;;;;;;;10.07;1.20;;;;;;;;;;5034224;28;20044;-59
2021/10/12 02:37:09;;;;;;;12.55;1.60;;;;;;;;;;5037040;28;20381;-58
2021/10/12 02:39:36;;;;;;;2.63;0.80;;;;;;;;;;5015330;28;20029;-58
2021/10/12 02:42:02;;;;;;;12.73;1.40;;;;;;;;;;5036120;28;20044;-58
2021/10/12 02:44:29;;;;;;;28.98;1.88;;;;;;;;;;5000877;28;20035;-57
2021/10/12 02:46:55;;;;;;;18.30;1.50;;;;;;;;;;5033430;28;20040;-56
2021/10/12 02:49:20;;;;;;;4.25;1.20;;;;;;;;;;5006041;28;20234;-56
2021/10/12 02:51:48;;;;;;;18.35;1.25;;;;;;;;;;5035777;28;20115;-55
2021/10/12 02:54:13;;;;;;;10.13;1.20;;;;;;;;;;5017387;28;20033;-58
2021/10/12 02:56:41;;;;;;;12.60;1.85;;;;;;;;;;5010561;28;20045;-54
2021/10/12 02:59:07;;;;;;;9.38;1.15;;;;;;;;;;4990719;28;20045;-54
2021/10/12 03:01:32;;;;;;;10.35;1.50;;;;;;;;;;5029956;28;20637;-55
2021/10/12 03:04:00;;;;;;;14.45;1.42;;;;;;;;;;5034533;28;21196;-56
2021/10/12 03:06:26;;;;;;;6.53;1.05;;;;;;;;;;5018298;28;20406;-54
2021/10/12 03:08:56;;;;;;;8.82;1.40;;;;;;;;;;4993232;28;20040;-53
2021/10/12 03:11:21;;;;;;;15.43;1.58;;;;;;;;;;5016016;28;20116;-54
2021/10/12 03:13:46;;;;;;;20.98;1.63;;;;;;;;;;5017918;28;20574;-55
2021/10/12 03:16:12;;;;;;;22.70;1.95;;;;;;;;;;5017232;28;20035;-54
2021/10/12 03:18:38;;;;;;;8.15;1.73;;;;;;;;;;5033149;28;20033;-55
2021/10/12 03:21:06;;;;;;;16.27;1.77;;;;;;;;;;5014643;28;20115;-55
2021/10/12 03:23:34;;;;;;;8.73;1.27;;;;;;;;;;5031822;28;20060;-54
2021/10/12 03:26:00;;;;;;;12.48;1.55;;;;;;;;;;5017014;28;20496;-53
2021/10/12 03:28:27;;;;;;;16.88;1.30;;;;;;;;;;5016223;28;20123;-54
2021/10/12 03:30:53;;;;;;;10.70;1.52;;;;;;;;;;5016798;28;20500;-54
2021/10/12 03:33:21;;;;;;;8.30;1.08;;;;;;;;;;5034875;28;20043;-53
2021/10/12 03:35:57;;;;;;;9.98;1.25;;;;;;;;;;5033115;28;20041;-54
2021/10/12 03:38:23;;;;;;;4.22;0.82;;;;;;;;;;5037352;28;20033;-59
2021/10/12 03:40:49;;;;;;;7.22;1.05;;;;;;;;;;5001407;28;20021;-53
2021/10/12 03:43:17;;;;;;;10.68;1.77;;;;;;;;;;5032151;28;20044;-56
2021/10/12 03:45:42;;;;;;;6.25;1.20;;;;;;;;;;5019966;28;20076;-57
2021/10/12 03:48:23;;;;;;;14.35;1.42;;;;;;;;;;5034395;28;20056;-55
2021/10/12 03:50:51;;;;;;;12.90;1.15;;;;;;;;;;5033688;28;20044;-54
2021/10/12 03:53:18;;;;;;;9.25;1.10;;;;;;;;;;5023403;28;20116;-55
2021/10/12 03:55:44;;;;;;;13.93;1.35;;;;;;;;;;5018120;28;20052;-54
2021/10/12 03:58:09;;;;;;;39.00;2.40;;;;;;;;;;5012404;28;20108;-53
2021/10/12 04:00:36;;;;;;;49.05;2.60;;;;;;;;;;5033119;28;20052;-53
2021/10/12 04:03:01;;;;;;;121.78;4.82;;;;;;;;;;5032516;28;20037;-56
2021/10/12 04:05:27;;;;;;;66.20;3.25;;;;;;;;;;5020261;28;20029;-58
2021/10/12 04:07:52;;;;;;;9.07;1.70;;;;;;;;;;5033783;28;20032;-57
2021/10/12 04:10:20;;;;;;;17.88;2.10;;;;;;;;;;5017592;28;20578;-56
2021/10/12 04:12:46;;;;;;;2.78;0.80;;;;;;;;;;5032353;28;20127;-56
2021/10/12 04:15:12;;;;;;;7.50;1.40;;;;;;;;;;5032003;28;20052;-56
2021/10/12 04:17:42;;;;;;;17.40;1.50;;;;;;;;;;5016127;28;20559;-55
2021/10/12 04:20:10;;;;;;;8.77;1.50;;;;;;;;;;5013969;28;20126;-55
2021/10/12 04:22:35;;;;;;;11.68;1.40;;;;;;;;;;5016822;28;20053;-57
2021/10/12 04:25:01;;;;;;;17.55;2.38;;;;;;;;;;5015237;28;20361;-56
2021/10/12 04:27:27;;;;;;;12.35;1.55;;;;;;;;;;5014946;28;20127;-56
2021/10/12 04:29:53;;;;;;;10.88;1.40;;;;;;;;;;5032153;28;20110;-56
2021/10/12 04:32:21;;;;;;;10.63;1.23;;;;;;;;;;5016151;28;20147;-56
2021/10/12 04:34:46;;;;;;;11.55;1.58;;;;;;;;;;5006205;28;20111;-56
2021/10/12 04:37:17;;;;;;;18.27;1.45;;;;;;;;;;5031530;28;20460;-54
2021/10/12 04:39:42;;;;;;;13.35;1.67;;;;;;;;;;5033804;28;20033;-55
2021/10/12 04:42:10;;;;;;;29.15;1.60;;;;;;;;;;4999359;28;20025;-57
2021/10/12 04:44:35;;;;;;;26.83;2.40;;;;;;;;;;4991717;28;20024;-56
2021/10/12 04:47:02;;;;;;;10.10;1.00;;;;;;;;;;5017277;28;20108;-57
2021/10/12 04:49:27;;;;;;;5.63;1.30;;;;;;;;;;5032280;28;20045;-56
2021/10/12 04:51:53;;;;;;;8.02;0.85;;;;;;;;;;5014494;28;20072;-56
2021/10/12 04:54:18;;;;;;;10.65;0.90;;;;;;;;;;5005157;28;20029;-54
2021/10/12 04:56:44;;;;;;;16.02;1.02;;;;;;;;;;4998916;28;20128;-55
2021/10/12 04:59:10;;;;;;;3.17;0.50;;;;;;;;;;5015447;28;20048;-56
2021/10/12 05:01:36;;;;;;;1.90;0.10;;;;;;;;;;5030855;28;20123;-55
2021/10/12 05:07:15;;;;;;;3.50;0.47;;;;;;;;;;5030333;28;20040;-55
2021/10/12 05:09:41;;;;;;;4.55;0.65;;;;;;;;;;5033030;28;20037;-56
2021/10/12 05:12:06;;;;;;;3.25;0.57;;;;;;;;;;5015364;28;20037;-57
2021/10/12 05:14:32;;;;;;;13.02;0.55;;;;;;;;;;4997352;28;20029;-57
2021/10/12 05:17:04;;;;;;;4.97;0.70;;;;;;;;;;5033417;28;20033;-54
2021/10/12 05:19:29;;;;;;;9.85;1.40;;;;;;;;;;5012693;28;21063;-56
2021/10/12 05:21:57;;;;;;;4.30;0.55;;;;;;;;;;5014695;28;20029;-56
2021/10/12 05:24:25;;;;;;;8.77;0.57;;;;;;;;;;5004410;28;20095;-56
2021/10/12 05:26:53;;;;;;;9.68;0.95;;;;;;;;;;5016896;28;20029;-56
2021/10/12 05:29:18;;;;;;;1.02;0.28;;;;;;;;;;5032988;28;20044;-57
2021/10/12 05:31:46;;;;;;;9.90;0.80;;;;;;;;;;4997277;28;20059;-55
2021/10/12 05:34:17;;;;;;;8.23;0.60;;;;;;;;;;5020372;28;20049;-56
2021/10/12 05:36:42;;;;;;;7.22;0.60;;;;;;;;;;5014064;28;20128;-56
2021/10/12 05:39:07;;;;;;;4.65;0.40;;;;;;;;;;4998986;28;20029;-56
2021/10/12 05:41:37;;;;;;;9.25;0.93;;;;;;;;;;5034234;28;20144;-57
2021/10/12 05:44:03;;;;;;;6.78;1.25;;;;;;;;;;5001790;28;20555;-55
2021/10/12 05:46:32;;;;;;;6.90;0.73;;;;;;;;;;5033164;28;20036;-56
2021/10/12 05:49:01;;;;;;;10.63;0.93;;;;;;;;;;5002435;28;20433;-55
2021/10/12 05:51:28;;;;;;;5.80;0.70;;;;;;;;;;5049595;28;20057;-56
2021/10/12 05:53:59;;;;;;;15.75;1.08;;;;;;;;;;5007152;28;20037;-56
2021/10/12 05:56:37;;;;;;;6.30;0.55;;;;;;;;;;5033728;28;20483;-55
2021/10/12 05:59:12;;;;;;;10.07;0.73;;;;;;;;;;5015456;28;20029;-56
2021/10/12 06:01:41;;;;;;;;;;;;;;;;;;5031978;28;20468;-56
2021/10/12 06:04:09;;;;;;;2.05;0.68;;;;;;;;;;5031225;28;20424;-56
2021/10/12 06:06:34;;;;;;;3.35;0.47;;;;;;;;;;5031640;28;20041;-54
2021/10/12 06:09:03;;;;;;;13.80;1.10;;;;;;;;;;4999219;28;20032;-55
2021/10/12 06:11:29;;;;;;;9.52;0.70;;;;;;;;;;5033245;28;20132;-56
2021/10/12 06:13:59;;;;;;;5.20;0.63;;;;;;;;;;5014682;28;20185;-55
2021/10/12 06:16:24;;;;;;;8.00;1.20;;;;;;;;;;5005698;28;20128;-55
2021/10/12 06:18:50;;;;;;;8.15;0.95;;;;;;;;;;5035447;28;20099;-55
2021/10/12 06:21:18;;;;;;;12.20;1.02;;;;;;;;;;5035919;28;20067;-55
2021/10/12 06:23:49;;;;;;;8.57;1.02;;;;;;;;;;5036108;28;20034;-57
2021/10/12 06:26:14;;;;;;;16.55;1.33;;;;;;;;;;5032049;28;20508;-57
2021/10/12 06:28:40;;;;;;;12.25;0.80;;;;;;;;;;5018911;28;20127;-55
2021/10/12 06:31:06;;;;;;;10.77;1.33;;;;;;;;;;5035107;28;20171;-55
2021/10/12 06:33:32;;;;;;;9.43;0.95;;;;;;;;;;5004691;28;20039;-56
2021/10/12 06:36:00;;;;;;;14.02;0.82;;;;;;;;;;5013924;28;20036;-56
2021/10/12 06:38:28;;;;;;;9.93;0.88;;;;;;;;;;5034332;28;20033;-56
2021/10/12 06:40:53;;;;;;;15.35;1.33;;;;;;;;;;5034120;28;20036;-56
2021/10/12 06:43:19;;;;;;;24.02;1.35;;;;;;;;;;5033531;28;20032;-56
2021/10/12 06:45:45;;;;;;;13.35;1.10;;;;;;;;;;5018750;28;20032;-57
2021/10/12 06:48:12;;;;;;;14.07;1.38;;;;;;;;;;5001116;28;20459;-57
2021/10/12 06:50:38;;;;;;;8.00;0.90;;;;;;;;;;5019347;28;21342;-57
2021/10/12 06:53:06;;;;;;;9.50;0.73;;;;;;;;;;5017069;28;20169;-57
2021/10/12 06:55:33;;;;;;;5.38;0.50;;;;;;;;;;5015691;28;20021;-57
2021/10/12 06:58:19;;;;;;;17.88;1.35;;;;;;;;;;4999226;28;20029;-57
2021/10/12 07:03:55;;;;;;;12.25;0.90;;;;;;;;;;5033947;28;20089;-57
2021/10/12 07:06:20;;;;;;;15.35;0.88;;;;;;;;;;5000200;28;20537;-57
2021/10/12 07:08:48;;;;;;;11.45;0.73;;;;;;;;;;5017390;28;20044;-57
2021/10/12 07:11:16;;;;;;;9.77;0.77;;;;;;;;;;5004607;28;20042;-57
2021/10/12 07:13:47;;;;;;;10.18;0.82;;;;;;;;;;5017308;28;20029;-57
2021/10/12 07:16:16;;;;;;;7.60;0.60;;;;;;;;;;5017109;28;20037;-57
2021/10/12 07:18:41;;;;;;;11.85;1.33;;;;;;;;;;5007832;28;20024;-57
2021/10/12 07:24:19;;;;;;;10.40;0.95;;;;;;;;;;5031895;28;20059;-56
2021/10/12 07:26:51;;;;;;;6.68;0.80;;;;;;;;;;5033253;28;20025;-56
2021/10/12 07:29:17;;;;;;;4.57;0.80;;;;;;;;;;5031431;28;20099;-57
2021/10/12 07:32:20;;;;;;;8.18;1.00;;;;;;;;;;5032420;28;20028;-58
2021/10/12 07:34:46;;;;;;;3.67;0.80;;;;;;;;;;5034603;28;20029;-57
2021/10/12 07:37:14;;;;;;;7.30;1.00;;;;;;;;;;5003663;28;20029;-58
2021/10/12 07:39:44;;;;;;;3.45;0.88;;;;;;;;;;5016766;28;20036;-57
2021/10/12 07:42:12;;;;;;;6.80;1.02;;;;;;;;;;5018260;28;20116;-58
2021/10/12 07:44:38;;;;;;;7.97;1.20;;;;;;;;;;5017451;28;20034;-58
2021/10/12 07:47:09;;;;;;;5.68;0.90;;;;;;;;;;5021575;28;20032;-58
2021/10/12 07:49:37;;;;;;;8.82;1.05;;;;;;;;;;5019070;28;20048;-57
2021/10/12 07:52:06;;;;;;;10.95;0.93;;;;;;;;;;5016690;28;20036;-58
2021/10/12 07:55:27;;;;;;;18.10;1.33;;;;;;;;;;5017376;28;20562;-58
2021/10/12 07:57:30;;;;;;;18.45;1.08;;;;;;;;;;5031577;28;20036;-58
2021/10/12 08:00:31;;;;;;;10.30;1.02;;;;;;;;;;5031730;28;20102;-58
2021/10/12 08:02:57;;;;;;;11.68;1.15;;;;;;;;;;5016921;28;21164;-58
2021/10/12 08:05:25;;;;;;;10.32;0.90;;;;;;;;;;5032456;28;20021;-58
2021/10/12 08:07:50;;;;;;;3.25;0.63;;;;;;;;;;5017443;28;20031;-58
2021/10/12 08:10:16;;;;;;;4.32;0.85;;;;;;;;;;5011341;28;20036;-58
2021/10/12 08:16:20;;;;;;;3.28;0.40;;;;;;;;;;5033076;28;20506;-58
2021/10/12 08:18:49;;;;;;;8.82;0.80;;;;;;;;;;5003375;28;20115;-58
2021/10/12 08:21:15;;;;;;;9.63;0.88;;;;;;;;;;5030330;28;20439;-58
2021/10/12 08:23:40;;;;;;;7.65;0.80;;;;;;;;;;5032139;28;20037;-57
2021/10/12 08:26:08;;;;;;;5.40;0.80;;;;;;;;;;5019618;28;20139;-58
2021/10/12 08:28:36;;;;;;;11.20;1.20;;;;;;;;;;5031535;28;20036;-58
2021/10/12 08:31:06;;;;;;;2.72;0.30;;;;;;;;;;4997957;28;20041;-58
2021/10/12 08:33:40;;;;;;;8.75;0.98;;;;;;;;;;5017672;28;20025;-59
2021/10/12 08:36:05;;;;;;;11.15;1.15;;;;;;;;;;5015027;28;20040;-57
2021/10/12 08:38:34;;;;;;;2.25;0.95;;;;;;;;;;5018601;28;20029;-60
2021/10/12 08:41:02;;;;;;;3.78;0.45;;;;;;;;;;5032467;28;20037;-58
2021/10/12 08:46:44;;;;;;;7.97;0.70;;;;;;;;;;5032457;28;20029;-59
2021/10/12 08:49:11;;;;;;;7.57;1.10;;;;;;;;;;5031006;28;20740;-58
2021/10/12 08:51:38;;;;;;;4.18;0.82;;;;;;;;;;5029512;28;20039;-57
2021/10/12 08:54:44;;;;;;;10.25;1.08;;;;;;;;;;5011687;28;20028;-58
2021/10/12 08:57:11;;;;;;;3.55;0.65;;;;;;;;;;5016320;28;20060;-58
2021/10/12 08:59:37;;;;;;;6.93;0.68;;;;;;;;;;5031625;28;20075;-58
2021/10/12 09:02:05;;;;;;;5.13;0.60;;;;;;;;;;5016949;28;20025;-58
2021/10/12 09:04:41;;;;;;;7.28;0.80;;;;;;;;;;5014192;28;20055;-59
2021/10/12 09:07:22;;;;;;;3.25;0.60;;;;;;;;;;5029604;28;20135;-59
2021/10/12 09:09:52;;;;;;;2.22;0.73;;;;;;;;;;5034314;28;20040;-59
2021/10/12 09:12:58;;;;;;;5.30;0.80;;;;;;;;;;5030484;28;20017;-59
2021/10/12 09:22:37;;;;;;;8.77;1.33;;;;;;;;;;5032985;28;20032;-59
2021/10/12 09:25:14;;;;;;;6.65;0.60;;;;;;;;;;5012971;28;21969;-59
2021/10/12 09:27:52;;;;;;;4.32;0.68;;;;;;;;;;5015179;28;20033;-59
2021/10/12 09:30:25;;;;;;;2.78;0.60;;;;;;;;;;5020759;28;20308;-59
2021/10/12 09:32:59;;;;;;;6.88;0.73;;;;;;;;;;5031182;28;20056;-59
2021/10/12 09:35:28;;;;;;;1.75;0.43;;;;;;;;;;5015853;28;20044;-59
2021/10/12 09:45:07;;;;;;;5.60;0.80;;;;;;;;;;5033611;28;20120;-59
2021/10/12 09:47:39;;;;;;;5.15;0.80;;;;;;;;;;5014348;28;20040;-58
2021/10/12 09:50:15;;;;;;;2.55;0.70;;;;;;;;;;5029213;28;20114;-59
2021/10/12 09:52:46;;;;;;;1.50;0.67;;;;;;;;;;5019478;28;20041;-57
2021/10/12 09:55:12;;;;;;;2.20;0.50;;;;;;;;;;5017277;28;20044;-59
2021/10/12 09:57:41;;;;;;;3.78;0.50;;;;;;;;;;5035414;28;20036;-59
2021/10/12 10:00:09;;;;;;;4.72;0.73;;;;;;;;;;5021941;28;20122;-59
2021/10/12 10:02:39;;;;;;;2.28;0.82;;;;;;;;;;5001996;28;20182;-59
2021/10/12 10:05:05;;;;;;;6.38;0.77;;;;;;;;;;5008110;28;20071;-59
2021/10/12 10:07:48;;;;;;;4.82;0.90;;;;;;;;;;5017491;28;20155;-59
2021/10/12 10:10:19;;;;;;;4.57;0.80;;;;;;;;;;5034885;28;20025;-59
2021/10/12 10:15:58;;;;;;;2.60;0.80;;;;;;;;;;5032832;28;20071;-59
2021/10/12 10:18:35;;;;;;;5.35;0.90;;;;;;;;;;5016499;28;20177;-59
2021/10/12 10:21:04;;;;;;;3.55;0.68;;;;;;;;;;5032696;28;20029;-59
2021/10/12 10:23:56;;;;;;;3.45;0.50;;;;;;;;;;5018438;28;20041;-59
2021/10/12 10:26:30;;;;;;;3.65;0.65;;;;;;;;;;5021132;28;20048;-59
2021/10/12 10:29:16;;;;;;;6.60;0.73;;;;;;;;;;5033076;28;20048;-59
2021/10/12 10:31:46;;;;;;;2.65;0.50;;;;;;;;;;5017413;28;20033;-59
2021/10/12 10:34:27;;;;;;;3.45;0.77;;;;;;;;;;5032614;28;20020;-59
2021/10/12 10:37:30;;;;;;;5.05;0.82;;;;;;;;;;5006154;28;20028;-58
2021/10/12 10:40:19;;;;;;;4.32;0.73;;;;;;;;;;5009356;28;20044;-59
2021/10/12 10:42:53;;;;;;;4.13;0.70;;;;;;;;;;5033737;28;20132;-59
2021/10/12 10:45:39;;;;;;;4.75;0.90;;;;;;;;;;5017605;28;20032;-59
2021/10/12 10:48:23;;;;;;;3.97;0.70;;;;;;;;;;5017739;28;20414;-60
2021/10/12 10:51:26;;;;;;;2.60;0.67;;;;;;;;;;5033468;28;20127;-59
2021/10/12 10:54:24;;;;;;;8.70;0.80;;;;;;;;;;5020978;28;20920;-58
2021/10/12 10:57:10;;;;;;;3.85;0.68;;;;;;;;;;5006135;28;20037;-59
2021/10/12 11:03:43;;;;;;;7.57;1.33;;;;;;;;;;5035522;28;20034;-59
2021/10/12 11:06:11;;;;;;;13.95;1.10;;;;;;;;;;5005206;28;20735;-58
2021/10/12 11:08:40;;;;;;;4.57;1.10;;;;;;;;;;5017047;28;20025;-59
2021/10/12 11:11:09;;;;;;;9.25;0.90;;;;;;;;;;5006957;28;20051;-57
2021/10/12 11:13:47;;;;;;;7.20;0.60;;;;;;;;;;5033716;28;20037;-59
2021/10/12 11:16:50;;;;;;;5.38;0.80;;;;;;;;;;5033612;28;20039;-58
2021/10/12 11:19:18;;;;;;;;;;;;;;;;;;5014892;28;20025;-58
2021/10/12 11:22:15;;;;;;;6.70;1.30;;;;;;;;;;5033780;28;19919;-58
2021/10/12 11:28:05;;;;;;;5.70;0.93;;;;;;;;;;5031241;28;20037;-61
2021/10/12 11:30:32;;;;;;;2.03;0.55;;;;;;;;;;5033288;28;20157;-60
2021/10/12 11:33:01;;;;;;;7.10;1.25;;;;;;;;;;5033631;28;21889;-59
2021/10/12 11:35:42;;;;;;;5.53;0.98;;;;;;;;;;5016756;28;20029;-59
2021/10/12 11:38:10;;;;;;;5.50;1.33;;;;;;;;;;5050575;28;20029;-61
2021/10/12 11:40:38;;;;;;;9.25;0.90;;;;;;;;;;5015027;28;20037;-60
2021/10/12 11:43:40;;;;;;;4.13;0.82;;;;;;;;;;5030522;28;20512;-60
2021/10/12 11:46:06;;;;;;;6.13;1.38;;;;;;;;;;5016935;28;20496;-60
2021/10/12 11:48:39;;;;;;;6.78;1.10;;;;;;;;;;5022573;28;20039;-58
2021/10/12 11:54:37;;;;;;;5.78;0.60;;;;;;;;;;5034914;28;20082;-57
2021/10/12 11:57:14;;;;;;;8.98;1.17;;;;;;;;;;5011755;28;20036;-58
2021/10/12 11:59:50;;;;;;;5.70;1.02;;;;;;;;;;5016206;28;20035;-60
2021/10/12 12:02:20;;;;;;;4.43;1.05;;;;;;;;;;5020128;28;20163;-59
2021/10/12 12:04:50;;;;;;;6.78;1.00;;;;;;;;;;5002190;28;20545;-59
2021/10/12 12:07:47;;;;;;;5.18;0.85;;;;;;;;;;4998257;28;20033;-59
2021/10/12 12:10:15;;;;;;;8.52;0.90;;;;;;;;;;5034928;28;20033;-59
2021/10/12 12:12:44;;;;;;;7.03;0.70;;;;;;;;;;5018923;28;20487;-58
2021/10/12 12:15:09;;;;;;;6.75;0.80;;;;;;;;;;5016032;28;20041;-58
2021/10/12 12:17:39;;;;;;;11.43;1.08;;;;;;;;;;5000543;28;20029;-58
2021/10/12 12:20:11;;;;;;;8.18;1.10;;;;;;;;;;5014845;28;20029;-58
2021/10/12 12:22:41;;;;;;;7.22;1.58;;;;;;;;;;5018803;28;20086;-59
2021/10/12 12:25:10;;;;;;;7.57;1.10;;;;;;;;;;5017358;28;20451;-59
2021/10/12 12:27:57;;;;;;;4.43;0.80;;;;;;;;;;5028504;28;20036;-59
2021/10/12 12:34:00;;;;;;;4.82;0.88;;;;;;;;;;5034292;28;22136;-58
2021/10/12 12:36:32;;;;;;;4.53;1.10;;;;;;;;;;5017234;28;20033;-59
2021/10/12 12:39:05;;;;;;;3.97;0.80;;;;;;;;;;5032527;28;20033;-61
2021/10/12 12:41:36;;;;;;;6.72;1.10;;;;;;;;;;5017240;28;20052;-61
2021/10/12 12:44:04;;;;;;;3.60;0.85;;;;;;;;;;5031851;28;20511;-60
2021/10/12 12:50:16;;;;;;;4.95;0.80;;;;;;;;;;5034755;28;20090;-61
2021/10/12 12:52:44;;;;;;;10.45;0.93;;;;;;;;;;5019804;28;20020;-59
2021/10/12 12:55:29;;;;;;;1.95;0.68;;;;;;;;;;5013276;28;20088;-60
2021/10/12 12:57:57;;;;;;;6.20;0.82;;;;;;;;;;5003763;28;20036;-58
2021/10/12 13:00:25;;;;;;;4.10;0.52;;;;;;;;;;5017215;28;20052;-59
2021/10/12 13:02:53;;;;;;;3.80;0.63;;;;;;;;;;5032473;28;20037;-59
2021/10/12 13:05:20;;;;;;;2.80;0.80;;;;;;;;;;5030431;28;20040;-58
2021/10/12 13:07:45;;;;;;;1.98;0.40;;;;;;;;;;5031727;28;20033;-60
2021/10/12 13:10:13;;;;;;;3.70;0.73;;;;;;;;;;5032036;28;20067;-60
2021/10/12 13:12:40;;;;;;;4.22;0.70;;;;;;;;;;5031384;28;20124;-60
2021/10/12 13:15:12;;;;;;;1.48;0.35;;;;;;;;;;5016230;28;20037;-59
2021/10/12 13:17:37;;;;;;;3.30;0.55;;;;;;;;;;5014247;28;20618;-60
2021/10/12 13:20:03;;;;;;;3.83;0.82;;;;;;;;;;5015583;28;20527;-61
2021/10/12 13:22:29;;;;;;;2.70;0.50;;;;;;;;;;5032410;28;20033;-59
2021/10/12 13:24:56;;;;;;;3.08;0.68;;;;;;;;;;4996607;28;20033;-60
2021/10/12 13:27:25;;;;;;;4.30;0.57;;;;;;;;;;5020516;28;20028;-61
2021/10/12 13:29:50;;;;;;;3.05;0.60;;;;;;;;;;5017444;28;20185;-59
2021/10/12 13:32:19;;;;;;;1.08;0.40;;;;;;;;;;5003330;28;20041;-60
2021/10/12 13:34:49;;;;;;;2.75;0.43;;;;;;;;;;5037350;28;20025;-59
2021/10/12 13:37:15;;;;;;;1.77;0.40;;;;;;;;;;5002077;28;20607;-60
2021/10/12 13:39:42;;;;;;;2.50;0.45;;;;;;;;;;5018210;28;20021;-60
2021/10/12 13:42:07;;;;;;;3.03;0.30;;;;;;;;;;5032492;28;20045;-61
2021/10/12 13:44:33;;;;;;;1.10;0.40;;;;;;;;;;5018515;28;20379;-60
2021/10/12 13:46:59;;;;;;;2.88;0.32;;;;;;;;;;5020560;28;20044;-59
2021/10/12 13:49:29;;;;;;;5.28;0.60;;;;;;;;;;5017460;28;20064;-60
2021/10/12 13:51:55;;;;;;;3.40;0.93;;;;;;;;;;5035503;28;20064;-59
2021/10/12 13:54:25;;;;;;;3.53;0.35;;;;;;;;;;5034485;28;20029;-60
2021/10/12 13:56:54;;;;;;;4.47;0.60;;;;;;;;;;5035191;28;20032;-60
2021/10/12 13:59:19;;;;;;;2.05;0.50;;;;;;;;;;5006157;28;20029;-60
2021/10/12 14:01:47;;;;;;;4.47;0.47;;;;;;;;;;5018505;28;20048;-63
2021/10/12 14:04:13;;;;;;;3.47;0.40;;;;;;;;;;5034060;28;20028;-61
2021/10/12 14:06:41;;;;;;;2.33;0.43;;;;;;;;;;5037017;28;20033;-60
2021/10/12 14:09:07;;;;;;;3.60;0.60;;;;;;;;;;5034205;28;20044;-62
2021/10/12 14:11:36;;;;;;;8.57;0.82;;;;;;;;;;5006217;28;20025;-61
2021/10/12 14:14:02;;;;;;;1.80;0.50;;;;;;;;;;5022452;28;20422;-60
2021/10/12 14:16:27;;;;;;;2.42;0.40;;;;;;;;;;5035564;28;20059;-61
2021/10/12 14:18:55;;;;;;;3.70;0.57;;;;;;;;;;5016166;28;20021;-61
2021/10/12 14:21:22;;;;;;;3.40;0.30;;;;;;;;;;5033371;28;20076;-62
2021/10/12 14:23:48;;;;;;;1.17;0.40;;;;;;;;;;5016626;28;20025;-61
2021/10/12 14:26:16;;;;;;;6.13;0.80;;;;;;;;;;5017126;28;20032;-61
2021/10/12 14:28:42;;;;;;;7.05;0.77;;;;;;;;;;5028514;28;20039;-59
2021/10/12 14:31:11;;;;;;;1.80;0.45;;;;;;;;;;5034546;28;20044;-57
2021/10/12 14:33:40;;;;;;;4.28;0.57;;;;;;;;;;5005259;28;20078;-58
2021/10/12 14:36:07;;;;;;;1.40;0.52;;;;;;;;;;5018452;28;20033;-58
2021/10/12 14:38:34;;;;;;;5.07;0.43;;;;;;;;;;5034386;28;20029;-57
2021/10/12 14:41:00;;;;;;;3.08;0.70;;;;;;;;;;5017893;28;20476;-57
2021/10/12 14:43:28;;;;;;;0.73;0.25;;;;;;;;;;5033938;28;20029;-57
2021/10/12 14:45:54;;;;;;;2.78;0.25;;;;;;;;;;5033914;28;20045;-57
2021/10/12 14:48:22;;;;;;;4.18;0.70;;;;;;;;;;5021055;28;22365;-56
2021/10/12 14:50:47;;;;;;;1.20;0.40;;;;;;;;;;5015396;28;20053;-59
2021/10/12 14:53:16;;;;;;;4.60;0.80;;;;;;;;;;5033644;28;20634;-58
2021/10/12 14:55:41;;;;;;;4.35;0.80;;;;;;;;;;5035963;28;20029;-60
2021/10/12 14:58:09;;;;;;;1.35;0.30;;;;;;;;;;5016598;28;20033;-59
2021/10/12 15:00:40;;;;;;;0.57;0.25;;;;;;;;;;5017756;28;20041;-59
2021/10/12 15:03:07;;;;;;;9.38;0.32;;;;;;;;;;5016321;28;20036;-59
2021/10/12 15:05:38;;;;;;;0.93;0.40;;;;;;;;;;5022041;28;20024;-59
2021/10/12 15:08:04;;;;;;;2.05;0.30;;;;;;;;;;5034499;28;20068;-59
2021/10/12 15:10:31;;;;;;;2.45;2.03;;;;;;;;;;5034012;28;20458;-58
2021/10/12 15:12:59;;;;;;;5.07;0.40;;;;;;;;;;5003626;28;20461;-58
2021/10/12 15:15:27;;;;;;;4.05;0.68;;;;;;;;;;5035953;28;20506;-58
2021/10/12 15:17:57;;;;;;;5.93;0.50;;;;;;;;;;5018544;28;20025;-58
2021/10/12 15:20:25;;;;;;;3.50;0.38;;;;;;;;;;5017072;28;20484;-60
2021/10/12 15:22:50;;;;;;;4.28;0.63;;;;;;;;;;5019262;28;20660;-58
2021/10/12 15:25:18;;;;;;;5.10;0.80;;;;;;;;;;5033499;28;20541;-58
2021/10/12 15:27:46;;;;;;;2.42;0.50;;;;;;;;;;5015554;28;20091;-59
2021/10/12 15:30:13;;;;;;;3.92;0.70;;;;;;;;;;5016863;28;20037;-58
2021/10/12 15:32:42;;;;;;;4.68;0.82;;;;;;;;;;5015981;28;20669;-59
2021/10/12 15:35:08;;;;;;;1.60;0.60;;;;;;;;;;5038014;28;20029;-59
2021/10/12 15:37:36;;;;;;;8.02;0.70;;;;;;;;;;5016097;28;20064;-60
2021/10/12 15:40:04;;;;;;;7.45;0.50;;;;;;;;;;5032747;28;20029;-59
2021/10/12 15:42:35;;;;;;;4.72;0.57;;;;;;;;;;5033649;28;20024;-60
2021/10/12 15:45:01;;;;;;;6.13;0.70;;;;;;;;;;4994604;28;20203;-59
2021/10/12 15:47:27;;;;;;;2.40;0.30;;;;;;;;;;5009526;28;20071;-59